N9258Z LFMP-LFMN
Flight info
| Callsign | N9258Z |
|---|---|
| Flight time | N/A |
| Altitude | |
| Route | |
| Aircraft | C404/L-V/N |
Departure
| Time | N/A |
|---|---|
| Airport | Perpignan-Rivesaltes (Llabanère) Airport (LFMP) |
Arrival
| Time | 2026-05-01 12:40 |
|---|---|
| Airport | Nice-Côte d'Azur Airport (LFMN) |
| Time | Latitude | Longitude | Altitude | Speed | Heading |
|---|---|---|---|---|---|
| 2026-05-01 11:50 | 43.02790 | 5.01539 | 4712 ft | 165 kts | 83° |
| 2026-05-01 11:51 | 43.02987 | 5.03082 | 4649 ft | 165 kts | 82° |
| 2026-05-01 11:51 | 43.03184 | 5.04627 | 4584 ft | 165 kts | 82° |
| 2026-05-01 11:51 | 43.03382 | 5.06172 | 4513 ft | 165 kts | 83° |
| 2026-05-01 11:51 | 43.03580 | 5.07713 | 4450 ft | 164 kts | 83° |
| 2026-05-01 11:52 | 43.03777 | 5.09246 | 4380 ft | 163 kts | 83° |
| 2026-05-01 11:52 | 43.03972 | 5.10773 | 4312 ft | 164 kts | 83° |
| 2026-05-01 11:52 | 43.04166 | 5.12307 | 4252 ft | 164 kts | 83° |
| 2026-05-01 11:52 | 43.04362 | 5.13825 | 4185 ft | 164 kts | 83° |
| 2026-05-01 11:53 | 43.04561 | 5.15354 | 4122 ft | 163 kts | 84° |
| 2026-05-01 11:53 | 43.04758 | 5.16882 | 4059 ft | 163 kts | 84° |
| 2026-05-01 11:53 | 43.04954 | 5.18410 | 3983 ft | 163 kts | 83° |
| 2026-05-01 11:53 | 43.05150 | 5.19935 | 3917 ft | 162 kts | 83° |
| 2026-05-01 11:54 | 43.05346 | 5.21454 | 3856 ft | 162 kts | 84° |
| 2026-05-01 11:54 | 43.05533 | 5.22972 | 3818 ft | 161 kts | 84° |
| 2026-05-01 11:54 | 43.05717 | 5.24482 | 3759 ft | 161 kts | 84° |
| 2026-05-01 11:54 | 43.05903 | 5.25992 | 3695 ft | 161 kts | 84° |
| 2026-05-01 11:55 | 43.06090 | 5.27504 | 3638 ft | 161 kts | 84° |
| 2026-05-01 11:55 | 43.06278 | 5.29016 | 3577 ft | 161 kts | 84° |
| 2026-05-01 11:55 | 43.06471 | 5.30522 | 3527 ft | 160 kts | 84° |
| 2026-05-01 11:55 | 43.06656 | 5.32022 | 3468 ft | 159 kts | 88° |
| 2026-05-01 11:56 | 43.06582 | 5.33515 | 3396 ft | 157 kts | 98° |
| 2026-05-01 11:56 | 43.06399 | 5.34990 | 3343 ft | 157 kts | 100° |
| 2026-05-01 11:56 | 43.06201 | 5.36454 | 3295 ft | 156 kts | 100° |
| 2026-05-01 11:56 | 43.06003 | 5.37893 | 3237 ft | 155 kts | 100° |
| 2026-05-01 11:57 | 43.05797 | 5.39335 | 3177 ft | 154 kts | 100° |
| 2026-05-01 11:57 | 43.05593 | 5.40773 | 3132 ft | 153 kts | 100° |
| 2026-05-01 11:57 | 43.05392 | 5.42200 | 3085 ft | 152 kts | 99° |
| 2026-05-01 11:57 | 43.05187 | 5.43616 | 3028 ft | 151 kts | 100° |
| 2026-05-01 11:58 | 43.04980 | 5.45023 | 2973 ft | 151 kts | 100° |
| 2026-05-01 11:58 | 43.04767 | 5.46425 | 2931 ft | 150 kts | 99° |
| 2026-05-01 11:58 | 43.04332 | 5.49216 | 2821 ft | 150 kts | 100° |
| 2026-05-01 11:59 | 43.04110 | 5.50612 | 2776 ft | 149 kts | 99° |
| 2026-05-01 11:59 | 43.03892 | 5.51980 | 2821 ft | 146 kts | 99° |
| 2026-05-01 11:59 | 43.03685 | 5.53323 | 2857 ft | 143 kts | 100° |
| 2026-05-01 12:00 | 43.03301 | 5.55976 | 2902 ft | 141 kts | 100° |
| 2026-05-01 12:00 | 43.03114 | 5.57275 | 2918 ft | 141 kts | 99° |
| 2026-05-01 12:00 | 43.02738 | 5.59921 | 2980 ft | 142 kts | 99° |
| 2026-05-01 12:01 | 43.02550 | 5.61240 | 3005 ft | 142 kts | 99° |
| 2026-05-01 12:01 | 43.02361 | 5.62569 | 3005 ft | 143 kts | 99° |
| 2026-05-01 12:01 | 43.02174 | 5.63906 | 3010 ft | 144 kts | 99° |
| 2026-05-01 12:01 | 43.01989 | 5.65255 | 3012 ft | 145 kts | 99° |
| 2026-05-01 12:02 | 43.01799 | 5.66608 | 3012 ft | 145 kts | 99° |
| 2026-05-01 12:02 | 43.01609 | 5.67956 | 3013 ft | 144 kts | 99° |
| 2026-05-01 12:02 | 43.01422 | 5.69302 | 3014 ft | 144 kts | 99° |
| 2026-05-01 12:02 | 43.01236 | 5.70644 | 3015 ft | 144 kts | 99° |
| 2026-05-01 12:03 | 43.01037 | 5.71985 | 3012 ft | 144 kts | 99° |
| 2026-05-01 12:03 | 43.00815 | 5.73318 | 3012 ft | 144 kts | 99° |
| 2026-05-01 12:03 | 43.00604 | 5.74652 | 3014 ft | 144 kts | 99° |
| 2026-05-01 12:03 | 43.00397 | 5.75988 | 3018 ft | 144 kts | 99° |
| 2026-05-01 12:04 | 43.00193 | 5.77321 | 3021 ft | 146 kts | 99° |
| 2026-05-01 12:04 | 42.99986 | 5.78678 | 3023 ft | 146 kts | 99° |
| 2026-05-01 12:04 | 42.99777 | 5.80047 | 3026 ft | 147 kts | 99° |
| 2026-05-01 12:04 | 42.99569 | 5.81426 | 3016 ft | 148 kts | 99° |
| 2026-05-01 12:05 | 42.99360 | 5.82804 | 3019 ft | 148 kts | 98° |
| 2026-05-01 12:05 | 42.98914 | 5.85543 | 3016 ft | 146 kts | 99° |
| 2026-05-01 12:05 | 42.98662 | 5.86881 | 3018 ft | 145 kts | 103° |
| 2026-05-01 12:06 | 42.98364 | 5.88195 | 3018 ft | 144 kts | 103° |
| 2026-05-01 12:06 | 42.98066 | 5.89500 | 3017 ft | 144 kts | 103° |
| 2026-05-01 12:06 | 42.97769 | 5.90807 | 3014 ft | 144 kts | 103° |
| 2026-05-01 12:06 | 42.97478 | 5.92122 | 3014 ft | 145 kts | 103° |
| 2026-05-01 12:07 | 42.97197 | 5.93442 | 3017 ft | 145 kts | 103° |
| 2026-05-01 12:07 | 42.96916 | 5.94776 | 3021 ft | 147 kts | 103° |
| 2026-05-01 12:07 | 42.96629 | 5.96118 | 3023 ft | 147 kts | 103° |
| 2026-05-01 12:07 | 42.96281 | 5.97439 | 3023 ft | 148 kts | 108° |
| 2026-05-01 12:08 | 42.95908 | 5.98719 | 3023 ft | 147 kts | 108° |
| 2026-05-01 12:08 | 42.95527 | 6.00015 | 3024 ft | 147 kts | 108° |
| 2026-05-01 12:08 | 42.95145 | 6.01303 | 3025 ft | 146 kts | 108° |
| 2026-05-01 12:08 | 42.94763 | 6.02583 | 3026 ft | 146 kts | 108° |
| 2026-05-01 12:09 | 42.94378 | 6.03861 | 3026 ft | 145 kts | 107° |
| 2026-05-01 12:09 | 42.93989 | 6.05134 | 3025 ft | 145 kts | 108° |
| 2026-05-01 12:09 | 42.93596 | 6.06404 | 3024 ft | 145 kts | 108° |
| 2026-05-01 12:09 | 42.93206 | 6.07675 | 3024 ft | 145 kts | 108° |
| 2026-05-01 12:10 | 42.92815 | 6.08947 | 3023 ft | 145 kts | 106° |
| 2026-05-01 12:10 | 42.92122 | 6.11516 | 3015 ft | 142 kts | 96° |
| 2026-05-01 12:10 | 42.92053 | 6.12861 | 3014 ft | 143 kts | 88° |
| 2026-05-01 12:11 | 42.92059 | 6.15602 | 3018 ft | 146 kts | 88° |
| 2026-05-01 12:11 | 42.92061 | 6.16990 | 3020 ft | 147 kts | 88° |
| 2026-05-01 12:11 | 42.92072 | 6.18384 | 3021 ft | 147 kts | 87° |
| 2026-05-01 12:12 | 42.92086 | 6.19750 | 3021 ft | 145 kts | 87° |
| 2026-05-01 12:12 | 42.92134 | 6.21115 | 3020 ft | 143 kts | 80° |
| 2026-05-01 12:12 | 42.92439 | 6.22405 | 3013 ft | 145 kts | 62° |
| 2026-05-01 12:12 | 42.93267 | 6.23232 | 3018 ft | 151 kts | 34° |
| 2026-05-01 12:13 | 42.94186 | 6.23922 | 3025 ft | 151 kts | 36° |
| 2026-05-01 12:13 | 42.95107 | 6.24636 | 3025 ft | 152 kts | 36° |
| 2026-05-01 12:13 | 42.96031 | 6.25345 | 3026 ft | 152 kts | 37° |
| 2026-05-01 12:13 | 42.96960 | 6.26045 | 3025 ft | 153 kts | 36° |
| 2026-05-01 12:14 | 42.97891 | 6.26737 | 3025 ft | 152 kts | 36° |
| 2026-05-01 12:14 | 42.98825 | 6.27429 | 3029 ft | 153 kts | 36° |
| 2026-05-01 12:14 | 42.99764 | 6.28135 | 3031 ft | 155 kts | 36° |
| 2026-05-01 12:14 | 43.00704 | 6.28852 | 3033 ft | 155 kts | 36° |
| 2026-05-01 12:15 | 43.01637 | 6.29584 | 3033 ft | 154 kts | 39° |
| 2026-05-01 12:15 | 43.02224 | 6.30115 | 3032 ft | 152 kts | 41° |
| 2026-05-01 12:15 | 43.03083 | 6.30945 | 3033 ft | 150 kts | 43° |
| 2026-05-01 12:15 | 43.03902 | 6.31818 | 3034 ft | 149 kts | 46° |
| 2026-05-01 12:16 | 43.04699 | 6.32725 | 3032 ft | 150 kts | 46° |
| 2026-05-01 12:16 | 43.05758 | 6.33938 | 3024 ft | 150 kts | 46° |
| 2026-05-01 12:16 | 43.06298 | 6.34559 | 3022 ft | 150 kts | 46° |
| 2026-05-01 12:16 | 43.07090 | 6.35477 | 3021 ft | 148 kts | 47° |
| 2026-05-01 12:17 | 43.07818 | 6.36463 | 3020 ft | 147 kts | 51° |
| 2026-05-01 12:17 | 43.08533 | 6.37467 | 3022 ft | 147 kts | 51° |
| 2026-05-01 12:17 | 43.09250 | 6.38481 | 3025 ft | 149 kts | 51° |
| 2026-05-01 12:17 | 43.09961 | 6.39487 | 3028 ft | 149 kts | 51° |
| 2026-05-01 12:18 | 43.10685 | 6.40507 | 3027 ft | 149 kts | 50° |
| 2026-05-01 12:18 | 43.11368 | 6.41480 | 3019 ft | 149 kts | 51° |
| 2026-05-01 12:18 | 43.12081 | 6.42502 | 3018 ft | 148 kts | 50° |
| 2026-05-01 12:18 | 43.12801 | 6.43504 | 3015 ft | 147 kts | 50° |
| 2026-05-01 12:19 | 43.13504 | 6.44519 | 3017 ft | 147 kts | 51° |
| 2026-05-01 12:19 | 43.14208 | 6.45538 | 3017 ft | 148 kts | 51° |
| 2026-05-01 12:19 | 43.14920 | 6.46561 | 3017 ft | 149 kts | 51° |
| 2026-05-01 12:19 | 43.15626 | 6.47586 | 3021 ft | 148 kts | 50° |
| 2026-05-01 12:20 | 43.16354 | 6.48648 | 3030 ft | 157 kts | 50° |
| 2026-05-01 12:20 | 43.17101 | 6.49754 | 3028 ft | 157 kts | 51° |
| 2026-05-01 12:20 | 43.17800 | 6.50936 | 3016 ft | 162 kts | 54° |
| 2026-05-01 12:20 | 43.18545 | 6.52106 | 3021 ft | 163 kts | 50° |
| 2026-05-01 12:21 | 43.19317 | 6.53236 | 3025 ft | 162 kts | 50° |
| 2026-05-01 12:21 | 43.20051 | 6.54361 | 3017 ft | 160 kts | 51° |
| 2026-05-01 12:21 | 43.20804 | 6.55489 | 3029 ft | 157 kts | 50° |
| 2026-05-01 12:21 | 43.21531 | 6.56590 | 3025 ft | 160 kts | 51° |
| 2026-05-01 12:22 | 43.22294 | 6.57730 | 2832 ft | 164 kts | 50° |
| 2026-05-01 12:22 | 43.23075 | 6.58876 | 2752 ft | 164 kts | 51° |
| 2026-05-01 12:22 | 43.23852 | 6.60022 | 2599 ft | 164 kts | 50° |
| 2026-05-01 12:22 | 43.24636 | 6.61170 | 2497 ft | 165 kts | 51° |
| 2026-05-01 12:23 | 43.25424 | 6.62321 | 2270 ft | 166 kts | 51° |
| 2026-05-01 12:23 | 43.26237 | 6.63461 | 2096 ft | 167 kts | 50° |
| 2026-05-01 12:23 | 43.27041 | 6.64614 | 1959 ft | 167 kts | 50° |
| 2026-05-01 12:23 | 43.27842 | 6.65765 | 1751 ft | 167 kts | 50° |
| 2026-05-01 12:24 | 43.28647 | 6.66923 | 1525 ft | 168 kts | 49° |
| 2026-05-01 12:24 | 43.29444 | 6.68103 | 1317 ft | 169 kts | 51° |
| 2026-05-01 12:24 | 43.30257 | 6.69274 | 1112 ft | 169 kts | 50° |
| 2026-05-01 12:24 | 43.31074 | 6.70427 | 992 ft | 164 kts | 49° |
| 2026-05-01 12:25 | 43.31839 | 6.71537 | 991 ft | 155 kts | 50° |
| 2026-05-01 12:25 | 43.33559 | 6.73173 | 989 ft | 148 kts | 32° |
| 2026-05-01 12:25 | 43.34492 | 6.73728 | 991 ft | 144 kts | 30° |
| 2026-05-01 12:26 | 43.35358 | 6.74349 | 992 ft | 138 kts | 37° |
| 2026-05-01 12:26 | 43.36963 | 6.75791 | 992 ft | 135 kts | 60° |
| 2026-05-01 12:26 | 43.37194 | 6.76998 | 1001 ft | 132 kts | 82° |
| 2026-05-01 12:27 | 43.37346 | 6.78257 | 1003 ft | 138 kts | 81° |
| 2026-05-01 12:27 | 43.37659 | 6.80939 | 1009 ft | 146 kts | 82° |
| 2026-05-01 12:28 | 43.37984 | 6.83691 | 1010 ft | 147 kts | 82° |
| 2026-05-01 12:28 | 43.38144 | 6.85091 | 1011 ft | 148 kts | 81° |
| 2026-05-01 12:28 | 43.38453 | 6.87899 | 1006 ft | 147 kts | 81° |
| 2026-05-01 12:29 | 43.38620 | 6.89283 | 1006 ft | 146 kts | 82° |
| 2026-05-01 12:29 | 43.38874 | 6.90617 | 998 ft | 145 kts | 61° |
| 2026-05-01 12:29 | 43.40333 | 6.92582 | 995 ft | 148 kts | 47° |
| 2026-05-01 12:30 | 43.41890 | 6.94489 | 999 ft | 149 kts | 47° |
| 2026-05-01 12:30 | 43.42660 | 6.95431 | 994 ft | 151 kts | 48° |
| 2026-05-01 12:30 | 43.43437 | 6.96412 | 995 ft | 152 kts | 48° |
| 2026-05-01 12:31 | 43.44218 | 6.97407 | 1002 ft | 155 kts | 47° |
| 2026-05-01 12:31 | 43.45008 | 6.98433 | 1002 ft | 156 kts | 48° |
| 2026-05-01 12:31 | 43.45801 | 6.99447 | 1004 ft | 155 kts | 48° |
| 2026-05-01 12:31 | 43.46553 | 7.00523 | 1012 ft | 157 kts | 50° |
| 2026-05-01 12:32 | 43.47292 | 7.01641 | 1004 ft | 159 kts | 55° |
| 2026-05-01 12:32 | 43.48599 | 7.04057 | 1008 ft | 157 kts | 57° |
| 2026-05-01 12:32 | 43.49246 | 7.05278 | 1002 ft | 158 kts | 57° |
| 2026-05-01 12:33 | 43.49876 | 7.06520 | 1008 ft | 158 kts | 57° |
| 2026-05-01 12:33 | 43.50503 | 7.07764 | 1008 ft | 157 kts | 57° |
| 2026-05-01 12:33 | 43.51147 | 7.08977 | 1009 ft | 157 kts | 57° |
| 2026-05-01 12:33 | 43.51789 | 7.10183 | 1000 ft | 155 kts | 57° |
| 2026-05-01 12:34 | 43.52418 | 7.11368 | 990 ft | 152 kts | 57° |
| 2026-05-01 12:34 | 43.53051 | 7.12537 | 994 ft | 153 kts | 56° |
| 2026-05-01 12:34 | 43.53699 | 7.13709 | 991 ft | 154 kts | 56° |
| 2026-05-01 12:34 | 43.54339 | 7.14877 | 997 ft | 152 kts | 56° |
| 2026-05-01 12:35 | 43.54976 | 7.16056 | 999 ft | 155 kts | 53° |
| 2026-05-01 12:35 | 43.55808 | 7.17050 | 1008 ft | 160 kts | 41° |
| 2026-05-01 12:35 | 43.56686 | 7.17997 | 1004 ft | 159 kts | 43° |
| 2026-05-01 12:35 | 43.57545 | 7.18920 | 1028 ft | 158 kts | 42° |
| 2026-05-01 12:36 | 43.58409 | 7.19839 | 1022 ft | 153 kts | 42° |
| 2026-05-01 12:36 | 43.59232 | 7.20716 | 1022 ft | 147 kts | 42° |
| 2026-05-01 12:36 | 43.60156 | 7.21262 | 1019 ft | 149 kts | 13° |
| 2026-05-01 12:36 | 43.61160 | 7.21476 | 1017 ft | 142 kts | 14° |
| 2026-05-01 12:37 | 43.62132 | 7.21684 | 1020 ft | 139 kts | 13° |
| 2026-05-01 12:37 | 43.63079 | 7.21899 | 1014 ft | 133 kts | 23° |
| 2026-05-01 12:37 | 43.63704 | 7.22711 | 915 ft | 129 kts | 89° |
| 2026-05-01 12:37 | 43.63110 | 7.23432 | 849 ft | 143 kts | 191° |
| 2026-05-01 12:38 | 43.62497 | 7.22390 | 756 ft | 146 kts | 271° |
| 2026-05-01 12:38 | 43.62722 | 7.21136 | 549 ft | 131 kts | 291° |
| 2026-05-01 12:38 | 43.63127 | 7.20054 | 432 ft | 119 kts | 310° |
| 2026-05-01 12:38 | 43.63666 | 7.19281 | 449 ft | 106 kts | 340° |
| 2026-05-01 12:39 | 43.64278 | 7.19385 | 319 ft | 92 kts | 58° |
| 2026-05-01 12:39 | 43.64635 | 7.20193 | 66 ft | 100 kts | 61° |
| 2026-05-01 12:39 | 43.65105 | 7.20843 | 21 ft | 87 kts | 55° |
| 2026-05-01 12:39 | 43.65473 | 7.21354 | 19 ft | 63 kts | 44° |
| 2026-05-01 12:40 | 43.65730 | 7.21672 | 18 ft | 39 kts | 27° |
| 2026-05-01 12:40 | 43.65952 | 7.21777 | 16 ft | 28 kts | 13° |
| 2026-05-01 12:40 | 43.66068 | 7.21819 | 17 ft | 5 kts | 16° |
| 2026-05-01 12:40 | 43.66087 | 7.21826 | 17 ft | 8 kts | 12° |
| 2026-05-01 12:41 | 43.66187 | 7.21791 | 17 ft | 19 kts | 319° |
| 2026-05-01 12:41 | 43.66297 | 7.21646 | 16 ft | 19 kts | 345° |
| 2026-05-01 12:41 | 43.66394 | 7.21748 | 17 ft | 21 kts | 47° |
| 2026-05-01 12:41 | 43.66527 | 7.21934 | 17 ft | 24 kts | 45° |
| 2026-05-01 12:42 | 43.66650 | 7.22102 | 16 ft | 28 kts | 43° |
| 2026-05-01 12:42 | 43.66770 | 7.22268 | 16 ft | 28 kts | 45° |
| 2026-05-01 12:42 | 43.66940 | 7.22505 | 16 ft | 41 kts | 49° |
| 2026-05-01 12:42 | 43.67059 | 7.22666 | 17 ft | 19 kts | 44° |
| 2026-05-01 12:43 | 43.67144 | 7.22785 | 17 ft | 5 kts | 47° |
| 2026-05-01 12:43 | 43.67156 | 7.22803 | 17 ft | 3 kts | 46° |
| 2026-05-01 12:43 | 43.67157 | 7.22825 | 17 ft | 3 kts | 131° |
| 2026-05-01 12:43 | 43.67138 | 7.22850 | 17 ft | 2 kts | 134° |
| 2026-05-01 12:44 | 43.67136 | 7.22853 | 17 ft | 0 kts | 134° |